Time;durP1;ratioP1;P1;durP2;ratioP2;P2;SDS_P1;SDS_P2;PMS_P1;PMS_P2;Temp;Humidity;BMP_temperature;BMP_pressure;BME280_temperature;BME280_humidity;BME280_pressure;Samples;Min_cycle;Max_cycle;Signal;HPM_P1;HPM_P2
2024/01/21 00:00:11;;;;;;;9.68;5.20;;;;;;;-0.62;40.77;102181.59;5053775;28;20117;-87
2024/01/21 00:02:43;;;;;;;7.22;4.70;;;;;;;-0.59;41.33;102176.16;5049021;28;20554;-86
2024/01/21 00:05:12;;;;;;;6.43;3.75;;;;;;;-0.58;41.17;102183.31;5042251;28;20516;-87
2024/01/21 00:07:40;;;;;;;8.73;4.60;;;;;;;-0.57;41.10;102167.16;5052375;28;20049;-87
2024/01/21 00:10:10;;;;;;;8.95;4.15;;;;;;;-0.62;40.81;102146.63;5056674;28;20049;-87
2024/01/21 00:12:40;;;;;;;6.88;4.13;;;;;;;-0.59;40.89;102150.16;5049253;28;20044;-87
2024/01/21 00:15:11;;;;;;;8.30;4.18;;;;;;;-0.59;40.73;102144.78;5041193;28;20055;-87
2024/01/21 00:17:39;;;;;;;7.07;4.10;;;;;;;-0.58;40.94;102141.19;5060157;28;20132;-88
2024/01/21 00:20:08;;;;;;;8.05;4.57;;;;;;;-0.56;40.98;102141.16;5057895;28;20127;-87
2024/01/21 00:22:36;;;;;;;8.02;4.70;;;;;;;-0.55;40.95;102116.00;5057841;28;20138;-88
2024/01/21 00:25:06;;;;;;;8.48;4.60;;;;;;;-0.55;40.81;102113.31;5058667;28;20139;-88
2024/01/21 00:27:34;;;;;;;8.02;4.65;;;;;;;-0.55;41.02;102108.81;5057900;28;20508;-88
2024/01/21 00:30:03;;;;;;;8.10;4.10;;;;;;;-0.55;41.08;102107.94;5057607;28;20041;-88
2024/01/21 00:32:33;;;;;;;8.35;5.07;;;;;;;-0.54;40.87;102107.91;5057743;28;20056;-88
2024/01/21 00:35:03;;;;;;;8.93;4.45;;;;;;;-0.55;40.92;102095.38;5054733;28;20041;-87
2024/01/21 00:37:31;;;;;;;8.32;4.93;;;;;;;-0.53;40.59;102098.03;5061458;28;20079;-86
2024/01/21 00:40:00;;;;;;;7.60;4.00;;;;;;;-0.53;41.00;102092.66;5065299;28;20053;-86
2024/01/21 00:42:28;;;;;;;8.48;5.25;;;;;;;-0.53;40.64;102088.19;5042655;28;20068;-86
2024/01/21 00:44:56;;;;;;;9.23;5.50;;;;;;;-0.52;40.72;102094.44;5050595;28;20052;-86
2024/01/21 00:47:24;;;;;;;8.95;5.03;;;;;;;-0.52;40.91;102084.56;5045575;28;20476;-87
2024/01/21 00:49:54;;;;;;;9.30;5.65;;;;;;;-0.52;40.47;102076.50;5044476;28;20053;-86
2024/01/21 00:52:22;;;;;;;8.93;5.13;;;;;;;-0.52;40.85;102067.56;5055480;28;20049;-86
2024/01/21 00:54:52;;;;;;;8.75;5.00;;;;;;;-0.53;40.68;102060.41;5046206;28;20567;-88
2024/01/21 00:57:21;;;;;;;9.10;4.70;;;;;;;-0.52;40.82;102059.47;5053447;28;20055;-88
2024/01/21 00:59:50;;;;;;;9.38;5.55;;;;;;;-0.51;41.03;102059.47;5065998;28;20040;-88
2024/01/21 01:02:18;;;;;;;10.32;5.45;;;;;;;-0.50;40.85;102058.53;5069167;28;20104;-88
2024/01/21 01:04:48;;;;;;;8.55;5.13;;;;;;;-0.49;40.74;102056.75;5064367;28;20098;-88
2024/01/21 01:07:18;;;;;;;9.95;5.80;;;;;;;-0.49;40.50;102054.03;5061602;28;20053;-86
2024/01/21 01:09:47;;;;;;;10.43;5.57;;;;;;;-0.52;40.75;102044.25;5051668;28;20108;-86
2024/01/21 01:12:15;;;;;;;10.35;5.72;;;;;;;-0.50;40.81;102044.22;5043127;28;20140;-86
2024/01/21 01:14:44;;;;;;;11.35;6.45;;;;;;;-0.46;40.61;102046.78;5041576;28;20037;-86
2024/01/21 01:17:12;;;;;;;9.98;6.30;;;;;;;-0.45;40.58;102062.00;5062920;28;20123;-87
2024/01/21 01:19:44;;;;;;;9.48;6.05;;;;;;;-0.46;40.91;102040.50;5049786;28;20059;-86
2024/01/21 01:22:13;;;;;;;11.80;6.32;;;;;;;-0.44;40.97;102038.69;5053243;28;20048;-86
2024/01/21 01:24:43;;;;;;;11.30;6.22;;;;;;;-0.44;40.59;102027.91;5041701;28;20045;-87
2024/01/21 01:27:11;;;;;;;10.30;5.70;;;;;;;-0.41;40.67;102036.81;5064051;28;20056;-86
2024/01/21 01:29:39;;;;;;;10.55;5.70;;;;;;;-0.41;40.93;102027.88;5049257;28;20273;-86
2024/01/21 01:32:08;;;;;;;11.32;6.20;;;;;;;-0.40;40.90;102024.25;5051629;28;20039;-85
2024/01/21 01:34:37;;;;;;;10.65;6.45;;;;;;;-0.39;40.79;102030.53;5044350;28;20037;-87
2024/01/21 01:37:05;;;;;;;13.05;6.85;;;;;;;-0.40;40.63;102021.56;5054149;28;20040;-86
2024/01/21 01:39:33;;;;;;;11.98;6.50;;;;;;;-0.41;40.76;102018.00;5054620;28;20072;-88
2024/01/21 01:42:05;;;;;;;12.10;6.47;;;;;;;-0.37;40.59;102025.97;5050364;28;20122;-87
2024/01/21 01:44:34;;;;;;;10.63;6.17;;;;;;;-0.39;40.74;102023.34;5051998;28;20480;-87
2024/01/21 01:47:02;;;;;;;12.57;6.68;;;;;;;-0.38;40.90;102008.94;5049778;28;20287;-88
2024/01/21 01:49:31;;;;;;;12.95;6.53;;;;;;;-0.36;40.67;102006.22;5048309;28;20063;-87
2024/01/21 01:52:00;;;;;;;13.40;7.45;;;;;;;-0.36;40.75;102017.88;5048735;28;20065;-88
2024/01/21 01:54:30;;;;;;;10.20;6.10;;;;;;;-0.35;40.60;102003.50;5047998;28;20124;-88
2024/01/21 01:56:59;;;;;;;11.75;6.32;;;;;;;-0.33;40.89;102006.16;5045203;28;20044;-89
2024/01/21 01:59:38;;;;;;;12.63;7.22;;;;;;;-0.35;40.32;101997.22;5062758;28;20047;-88
2024/01/21 02:02:09;;;;;;;13.25;6.78;;;;;;;-0.34;40.60;101999.00;5071424;28;20028;-89
2024/01/21 02:04:38;;;;;;;13.43;7.13;;;;;;;-0.32;40.63;101999.88;5067801;28;20063;-87
2024/01/21 02:07:06;;;;;;;11.93;6.70;;;;;;;-0.31;40.75;101997.13;5063093;28;20033;-88
2024/01/21 02:09:35;;;;;;;12.43;6.47;;;;;;;-0.31;40.63;101991.75;5068099;28;20109;-88
2024/01/21 02:12:04;;;;;;;13.02;7.20;;;;;;;-0.30;40.75;101971.09;5073060;28;20058;-88
2024/01/21 02:14:34;;;;;;;12.90;6.68;;;;;;;-0.28;40.60;101974.63;5069320;28;20029;-88
2024/01/21 02:17:03;;;;;;;12.77;6.95;;;;;;;-0.29;40.79;101970.19;5072024;28;20043;-89
2024/01/21 02:19:32;;;;;;;13.13;7.85;;;;;;;-0.31;40.70;101963.97;5049494;28;20076;-89
2024/01/21 02:22:06;;;;;;;14.52;7.53;;;;;;;-0.30;40.63;101961.22;5073775;28;20079;-89
2024/01/21 02:24:40;;;;;;;13.00;6.70;;;;;;;-0.28;39.95;101966.56;5060868;28;20044;-89
2024/01/21 02:27:08;;;;;;;;;;;;;;;-0.46;40.05;101973.28;5057387;28;20036;-88
2024/01/21 02:29:37;;;;;;;10.48;6.72;;;;;;;-0.31;40.93;101956.78;5060370;28;19929;-89
2024/01/21 02:32:08;;;;;;;12.05;6.97;;;;;;;-0.27;40.54;101958.47;5067130;28;20109;-89
2024/01/21 02:34:37;;;;;;;12.48;6.97;;;;;;;-0.26;40.68;101956.66;5062043;28;20059;-89
2024/01/21 02:37:10;;;;;;;11.52;6.47;;;;;;;-0.25;40.79;101944.97;5072131;28;20069;-89
2024/01/21 02:39:40;;;;;;;11.55;6.85;;;;;;;-0.24;40.49;101944.06;5067884;28;20075;-88
2024/01/21 02:42:09;;;;;;;12.18;6.88;;;;;;;-0.23;40.66;101946.72;5076440;28;20033;-89
2024/01/21 02:44:40;;;;;;;11.43;6.95;;;;;;;-0.23;40.55;101935.97;5068160;28;20045;-88
2024/01/21 02:47:09;;;;;;;15.05;7.57;;;;;;;-0.24;40.64;101933.31;5077935;28;20044;-88
2024/01/21 02:49:37;;;;;;;11.88;7.18;;;;;;;-0.24;40.67;101927.94;5073611;28;20049;-88
2024/01/21 02:52:07;;;;;;;12.43;7.18;;;;;;;-0.24;40.56;101923.44;5048389;28;20049;-86
2024/01/21 02:54:41;;;;;;;12.95;7.25;;;;;;;-0.22;40.31;101923.38;5053049;28;20036;-87
2024/01/21 02:57:14;;;;;;;11.73;6.63;;;;;;;-0.23;40.56;101921.63;5052219;28;20587;-88
2024/01/21 02:59:43;;;;;;;;;;;;;;;-0.44;39.70;101926.63;5044328;28;20507;-88
2024/01/21 03:02:12;;;;;;;10.73;6.55;;;;;;;-0.31;40.50;101929.91;5057082;28;19928;-87
2024/01/21 03:04:44;;;;;;;11.90;7.05;;;;;;;-0.26;40.26;101924.38;5041301;28;20104;-88
2024/01/21 03:07:13;;;;;;;13.73;7.28;;;;;;;-0.24;40.27;101920.75;5071034;28;20131;-88
2024/01/21 03:09:43;;;;;;;11.18;6.72;;;;;;;-0.27;39.84;101915.44;5045568;28;20503;-88
2024/01/21 03:12:12;;;;;;;14.43;7.60;;;;;;;-0.24;40.51;101912.66;5053744;28;20045;-88
2024/01/21 03:14:45;;;;;;;12.85;7.47;;;;;;;-0.26;40.22;101908.25;5051794;28;20584;-89
2024/01/21 03:17:14;;;;;;;13.35;7.13;;;;;;;-0.27;40.26;101912.75;5055093;28;20119;-88
2024/01/21 03:19:42;;;;;;;12.10;6.45;;;;;;;-0.26;40.57;101905.56;5040972;28;20098;-88
2024/01/21 03:22:11;;;;;;;11.95;7.03;;;;;;;-0.26;40.21;101906.44;5053668;28;20044;-88
2024/01/21 03:24:42;;;;;;;10.32;5.75;;;;;;;-0.22;40.16;101909.91;5051396;28;20424;-87
2024/01/21 03:27:11;;;;;;;13.30;6.90;;;;;;;-0.24;40.38;101909.09;5050722;28;20148;-88
2024/01/21 03:29:40;;;;;;;10.13;6.68;;;;;;;-0.27;40.07;101910.03;5041124;28;20083;-88
2024/01/21 03:32:07;;;;;;;11.95;6.90;;;;;;;-0.25;40.22;101899.25;5050980;28;20051;-87
2024/01/21 03:34:41;;;;;;;12.40;7.13;;;;;;;-0.25;40.20;101885.81;5051220;28;20132;-88
2024/01/21 03:37:10;;;;;;;12.80;7.20;;;;;;;-0.24;40.15;101877.69;5048078;28;20048;-88
2024/01/21 03:39:38;;;;;;;11.68;6.20;;;;;;;-0.25;40.35;101862.47;5062437;28;20049;-87
2024/01/21 03:42:08;;;;;;;12.50;6.75;;;;;;;-0.24;40.00;101866.06;5070639;28;20060;-88
2024/01/21 03:44:37;;;;;;;11.88;6.55;;;;;;;-0.25;40.02;101856.22;5057110;28;20137;-89
2024/01/21 03:47:06;;;;;;;10.30;6.00;;;;;;;-0.22;40.03;101853.41;5054162;28;20045;-89
2024/01/21 03:49:34;;;;;;;12.75;6.72;;;;;;;-0.21;40.03;101855.19;5067888;28;20051;-88
2024/01/21 03:52:05;;;;;;;11.90;6.93;;;;;;;-0.24;39.84;101845.41;5067830;28;20052;-87
2024/01/21 03:54:45;;;;;;;;;;;;;;;;;;;;;
2024/01/21 03:57:16;;;;;;;12.45;6.53;;;;;;;-0.24;39.69;101856.19;5065955;28;20044;-87
2024/01/21 03:59:55;;;;;;;12.82;6.75;;;;;;;-0.27;39.99;101850.88;5051330;28;20036;-87
2024/01/21 04:02:24;;;;;;;11.50;6.15;;;;;;;-0.25;40.11;101851.72;5047245;28;20138;-87
2024/01/21 04:04:53;;;;;;;10.52;6.13;;;;;;;-0.26;39.96;101841.88;5050579;28;20094;-87
2024/01/21 04:07:22;;;;;;;12.05;6.45;;;;;;;-0.25;39.96;101850.84;5052135;28;20106;-87
2024/01/21 04:09:51;;;;;;;10.40;6.18;;;;;;;-0.28;39.90;101843.72;5046787;28;20138;-87
2024/01/21 04:12:24;;;;;;;11.07;5.90;;;;;;;-0.27;39.49;101842.78;5052965;28;20144;-89
2024/01/21 04:14:58;;;;;;;12.63;6.30;;;;;;;-0.27;39.84;101836.53;5053644;28;20120;-88
2024/01/21 04:17:34;;;;;;;10.82;5.88;;;;;;;-0.23;39.75;101847.19;5051856;28;20049;-88
2024/01/21 04:20:08;;;;;;;10.20;5.63;;;;;;;-0.23;39.76;101843.59;5044307;28;20036;-88
2024/01/21 04:22:45;;;;;;;10.45;6.25;;;;;;;-0.27;40.05;101848.19;5050089;28;20099;-88
2024/01/21 04:25:14;;;;;;;10.85;6.18;;;;;;;-0.23;39.61;101847.19;5053052;28;20048;-88
2024/01/21 04:27:45;;;;;;;11.40;5.75;;;;;;;-0.20;39.59;101840.81;5034245;28;20045;-88
2024/01/21 04:30:14;;;;;;;10.98;6.03;;;;;;;-0.20;39.67;101843.50;5043232;28;20063;-87
2024/01/21 04:32:45;;;;;;;10.18;5.63;;;;;;;-0.19;39.74;101829.13;5047017;28;20044;-88
2024/01/21 04:35:14;;;;;;;10.18;5.80;;;;;;;-0.18;39.84;101830.91;5043558;28;20044;-86
2024/01/21 04:37:42;;;;;;;9.13;5.50;;;;;;;-0.20;39.75;101828.25;5039521;28;20055;-87
2024/01/21 04:40:14;;;;;;;9.43;5.18;;;;;;;-0.18;39.13;101831.78;5042197;28;20467;-86
2024/01/21 04:42:45;;;;;;;8.68;5.45;;;;;;;-0.18;39.61;101823.72;5033160;28;20041;-87
2024/01/21 04:45:16;;;;;;;11.25;6.13;;;;;;;-0.14;39.50;101817.31;5042834;28;20053;-86
2024/01/21 04:47:45;;;;;;;10.75;5.50;;;;;;;-0.15;39.53;101812.00;5061438;28;20527;-86
2024/01/21 04:50:14;;;;;;;9.05;5.03;;;;;;;-0.13;39.48;101802.06;5041067;28;20052;-86
2024/01/21 04:52:42;;;;;;;10.63;5.75;;;;;;;-0.12;39.45;101795.75;5045042;28;20049;-85
2024/01/21 04:55:11;;;;;;;10.45;5.45;;;;;;;-0.13;39.68;101791.28;5067228;28;20040;-87
2024/01/21 04:57:40;;;;;;;11.00;5.68;;;;;;;-0.12;39.47;101788.56;5061198;28;20047;-86
2024/01/21 05:00:09;;;;;;;10.93;5.97;;;;;;;-0.12;39.59;101791.25;5061519;28;20124;-88
2024/01/21 05:02:39;;;;;;;9.77;6.07;;;;;;;-0.14;39.51;101779.63;5073548;28;20052;-88
2024/01/21 05:05:08;;;;;;;9.80;5.80;;;;;;;-0.14;39.38;101771.56;5063407;28;20052;-89
2024/01/21 05:07:36;;;;;;;9.55;5.28;;;;;;;-0.11;39.53;101768.81;5064687;28;20139;-87
2024/01/21 05:10:05;;;;;;;8.95;5.50;;;;;;;-0.11;39.53;101765.22;5050066;28;20041;-87
2024/01/21 05:12:34;;;;;;;9.57;5.15;;;;;;;-0.08;39.27;101771.41;5044724;28;20052;-87
2024/01/21 05:15:03;;;;;;;9.77;5.25;;;;;;;-0.09;39.48;101766.06;5042692;28;20037;-87
2024/01/21 05:17:32;;;;;;;10.68;5.57;;;;;;;-0.08;39.46;101773.22;5047567;28;20040;-87
2024/01/21 05:20:05;;;;;;;11.40;5.60;;;;;;;-0.06;39.12;101772.22;5054597;28;20610;-88
2024/01/21 05:22:34;;;;;;;10.85;5.57;;;;;;;-0.09;39.44;101768.75;5068324;28;20138;-89
2024/01/21 05:25:03;;;;;;;8.23;4.82;;;;;;;-0.06;39.27;101772.22;5070769;28;20086;-88
2024/01/21 05:27:36;;;;;;;8.85;4.78;;;;;;;-0.06;39.38;101752.53;5071116;28;20060;-89
2024/01/21 05:30:08;;;;;;;10.07;5.75;;;;;;;-0.08;38.85;101741.81;5062052;28;20139;-89
2024/01/21 05:32:38;;;;;;;10.40;5.90;;;;;;;-0.09;39.05;101744.56;5061622;28;20040;-89
2024/01/21 05:35:15;;;;;;;9.75;5.32;;;;;;;-0.10;38.54;101740.97;5067946;28;20055;-89
2024/01/21 05:37:48;;;;;;;9.43;5.03;;;;;;;-0.10;39.14;101743.66;5059367;28;20045;-89
2024/01/21 05:40:23;;;;;;;9.57;5.35;;;;;;;-0.10;39.09;101732.03;5069357;28;20062;-88
2024/01/21 05:42:53;;;;;;;8.55;4.88;;;;;;;-0.09;39.25;101733.78;5074411;28;20084;-88
2024/01/21 05:45:22;;;;;;;7.75;4.63;;;;;;;-0.09;39.22;101720.34;5069946;28;20047;-88
2024/01/21 05:47:51;;;;;;;8.90;4.80;;;;;;;-0.07;39.26;101740.91;5074907;28;20044;-89
2024/01/21 05:50:22;;;;;;;10.00;5.55;;;;;;;-0.06;38.68;101739.94;5069068;28;20053;-88
2024/01/21 05:52:51;;;;;;;9.90;5.03;;;;;;;-0.06;38.99;101729.19;5083672;28;20044;-88
2024/01/21 05:55:20;;;;;;;8.88;5.10;;;;;;;-0.08;39.10;101727.47;5054275;28;20049;-88
2024/01/21 05:57:49;;;;;;;8.45;4.57;;;;;;;-0.05;38.97;101724.69;5056768;28;20059;-88
2024/01/21 06:00:18;;;;;;;8.98;4.80;;;;;;;-0.07;39.01;101722.06;5075304;28;20116;-88
2024/01/21 06:02:49;;;;;;;8.48;4.93;;;;;;;-0.06;39.03;101704.97;5076130;28;20029;-88
2024/01/21 06:05:17;;;;;;;8.75;4.90;;;;;;;-0.09;38.77;101710.44;5061404;28;20035;-87
2024/01/21 06:07:50;;;;;;;9.95;5.28;;;;;;;-0.03;38.57;101702.19;5078884;28;20047;-87
2024/01/21 06:10:20;;;;;;;8.43;5.05;;;;;;;-0.08;39.13;101703.25;5068873;28;20069;-89
2024/01/21 06:12:50;;;;;;;9.38;4.97;;;;;;;-0.09;38.85;101693.44;5041666;28;20077;-88
2024/01/21 06:15:19;;;;;;;9.50;5.30;;;;;;;-0.07;38.98;101694.28;5038444;28;20090;-88
2024/01/21 06:17:57;;;;;;;8.82;5.28;;;;;;;-0.06;38.61;101698.72;5050873;28;20539;-87
2024/01/21 06:20:26;;;;;;;8.27;5.20;;;;;;;-0.07;38.73;101708.59;5052861;28;20428;-88
2024/01/21 06:22:56;;;;;;;11.52;5.50;;;;;;;-0.05;38.56;101716.59;5059046;28;20083;-88
2024/01/21 06:25:25;;;;;;;9.30;5.03;;;;;;;-0.06;39.00;101715.72;5057484;28;20045;-87
2024/01/21 06:27:57;;;;;;;8.30;4.80;;;;;;;-0.08;39.17;101719.41;5057874;28;20096;-88
2024/01/21 06:30:26;;;;;;;8.02;4.90;;;;;;;-0.04;39.03;101713.88;5086084;22;20045;-71
2024/01/21 06:32:55;;;;;;;9.65;5.00;;;;;;;-0.06;39.18;101726.50;5049746;28;20068;-71
2024/01/21 06:35:30;;;;;;;9.40;5.43;;;;;;;-0.06;39.08;101710.34;5049922;28;20045;-71
2024/01/21 06:38:00;;;;;;;9.57;5.40;;;;;;;-0.06;38.95;101707.66;5049609;28;20144;-72
2024/01/21 06:40:28;;;;;;;9.93;5.60;;;;;;;-0.06;39.25;101715.72;5050669;28;20041;-72
2024/01/21 06:42:56;;;;;;;10.23;5.88;;;;;;;-0.10;38.83;101691.66;5050288;28;20037;-72
2024/01/21 06:45:24;;;;;;;9.75;5.68;;;;;;;-0.11;39.04;101690.78;5049644;28;20040;-72
2024/01/21 06:47:52;;;;;;;10.02;5.50;;;;;;;-0.11;38.76;101682.72;5049773;28;20044;-71
2024/01/21 06:50:27;;;;;;;11.25;5.82;;;;;;;-0.11;39.04;101688.09;5049216;28;20044;-72
2024/01/21 06:52:55;;;;;;;9.43;5.20;;;;;;;-0.09;39.02;101696.13;5050649;28;20120;-72
2024/01/21 06:55:25;;;;;;;10.05;5.65;;;;;;;-0.08;39.13;101693.38;5051738;28;20102;-72
2024/01/21 06:57:53;;;;;;;9.70;5.32;;;;;;;-0.07;39.11;101700.53;5049835;28;20462;-72
2024/01/21 07:00:21;;;;;;;10.18;5.25;;;;;;;-0.07;39.17;101705.03;5050921;28;20045;-70
2024/01/21 07:02:49;;;;;;;9.85;5.40;;;;;;;-0.07;39.16;101716.69;5049356;28;20041;-72
2024/01/21 07:05:17;;;;;;;11.20;5.75;;;;;;;-0.06;39.27;101742.63;5050971;28;20059;-72
2024/01/21 07:07:45;;;;;;;9.95;5.60;;;;;;;-0.06;39.14;101742.63;5050962;28;20068;-72
2024/01/21 07:10:16;;;;;;;9.63;5.40;;;;;;;-0.06;39.20;101750.72;5051283;28;20526;-72
2024/01/21 07:12:46;;;;;;;9.45;5.15;;;;;;;-0.03;39.26;101755.13;5048515;28;20045;-72
2024/01/21 07:15:14;;;;;;;8.93;5.43;;;;;;;-0.02;39.40;101773.03;5049811;28;20128;-72
2024/01/21 07:17:43;;;;;;;10.32;5.72;;;;;;;-0.00;39.61;101756.84;5049265;28;20574;-72
2024/01/21 07:20:13;;;;;;;11.45;5.57;;;;;;;-0.02;39.57;101773.91;5050662;28;20052;-72
2024/01/21 07:22:41;;;;;;;11.13;5.97;;;;;;;0.00;39.28;101765.81;5049664;28;20041;-72
2024/01/21 07:25:09;;;;;;;9.05;4.88;;;;;;;0.02;39.61;101765.78;5049886;28;20562;-71
2024/01/21 07:27:37;;;;;;;11.15;5.97;;;;;;;0.01;39.56;101775.66;5051039;28;20045;-71
2024/01/21 07:30:08;;;;;;;11.32;5.40;;;;;;;0.04;39.46;101789.00;5050045;28;20041;-72
2024/01/21 07:32:36;;;;;;;10.70;5.45;;;;;;;0.03;39.47;101795.31;5050558;28;20094;-72
2024/01/21 07:35:05;;;;;;;9.32;5.60;;;;;;;0.03;39.68;101797.09;5050758;28;20380;-72
2024/01/21 07:37:32;;;;;;;10.50;5.85;;;;;;;0.03;39.44;101807.88;5051276;28;20052;-72
2024/01/21 07:40:01;;;;;;;11.18;6.00;;;;;;;0.04;39.67;101825.78;5050674;28;20093;-73
2024/01/21 07:42:29;;;;;;;9.93;5.78;;;;;;;0.03;39.86;101803.38;5049587;28;20771;-73
2024/01/21 07:44:57;;;;;;;10.45;6.20;;;;;;;0.03;39.61;101797.09;5050592;28;20037;-72
2024/01/21 07:47:26;;;;;;;11.07;5.82;;;;;;;0.04;39.38;101801.56;5049264;28;20525;-73
2024/01/21 07:49:55;;;;;;;10.88;6.30;;;;;;;0.00;39.75;101803.47;5050661;28;20103;-72
2024/01/21 07:52:23;;;;;;;10.65;5.95;;;;;;;0.02;39.52;101820.47;5049268;28;20067;-72
2024/01/21 07:54:51;;;;;;;11.38;6.25;;;;;;;0.01;39.58;101797.19;5058885;28;20052;-73
2024/01/21 07:57:19;;;;;;;11.82;6.53;;;;;;;-0.00;39.42;101799.91;5069153;28;20064;-71
2024/01/21 07:59:48;;;;;;;11.38;6.22;;;;;;;0.00;39.74;101803.47;5067854;28;20041;-76
2024/01/21 08:02:16;;;;;;;11.25;6.53;;;;;;;-0.00;39.70;101797.22;5068705;28;20036;-72
2024/01/21 08:04:46;;;;;;;12.20;7.03;;;;;;;-0.02;39.59;101787.38;5069743;28;20052;-72
2024/01/21 08:07:14;;;;;;;11.00;6.32;;;;;;;-0.01;39.78;101782.88;5070767;28;20079;-72
2024/01/21 08:09:42;;;;;;;12.15;6.25;;;;;;;-0.03;39.63;101774.84;5070268;28;20558;-72
2024/01/21 08:12:10;;;;;;;10.52;5.88;;;;;;;-0.02;39.67;101776.63;5068857;28;20575;-72
2024/01/21 08:14:38;;;;;;;11.00;6.22;;;;;;;-0.03;39.96;101772.16;5070315;28;20064;-72
2024/01/21 08:17:06;;;;;;;11.30;6.55;;;;;;;-0.02;39.69;101764.97;5070430;28;20090;-72
2024/01/21 08:19:37;;;;;;;10.63;6.32;;;;;;;-0.01;39.60;101758.66;5069141;28;20052;-73
2024/01/21 08:22:08;;;;;;;10.55;5.80;;;;;;;0.00;39.71;101768.50;5067595;28;20106;-72
2024/01/21 08:24:36;;;;;;;10.32;5.68;;;;;;;-0.00;39.83;101764.94;5067619;28;20384;-72
2024/01/21 08:27:06;;;;;;;10.57;6.32;;;;;;;-0.00;39.80;101751.47;5070197;28;20044;-72
2024/01/21 08:29:34;;;;;;;10.68;6.43;;;;;;;-0.01;39.81;101755.97;5068711;28;20043;-73
2024/01/21 08:32:03;;;;;;;12.40;5.90;;;;;;;0.01;39.93;101751.44;5073492;28;20048;-74
2024/01/21 08:34:34;;;;;;;9.35;5.57;;;;;;;0.02;39.81;101753.19;5072538;28;20052;-75
2024/01/21 08:37:02;;;;;;;10.75;6.30;;;;;;;0.03;39.91;101737.91;5073686;28;20521;-73
2024/01/21 08:39:32;;;;;;;12.73;7.03;;;;;;;0.04;40.06;101739.66;5073209;28;20041;-72
2024/01/21 08:42:00;;;;;;;11.18;6.63;;;;;;;0.02;39.87;101742.44;5074162;28;20562;-73
2024/01/21 08:44:28;;;;;;;9.75;5.97;;;;;;;0.05;40.06;101747.72;5069908;28;20049;-74
2024/01/21 08:46:57;;;;;;;12.77;6.28;;;;;;;0.07;40.17;101753.03;5061659;28;20136;-75
2024/01/21 08:49:26;;;;;;;10.48;6.03;;;;;;;0.06;40.00;101772.81;5064526;28;20135;-75
2024/01/21 08:51:54;;;;;;;9.48;5.68;;;;;;;0.07;40.14;101801.50;5065462;28;20064;-75
2024/01/21 08:54:22;;;;;;;11.45;5.88;;;;;;;0.10;40.18;101837.28;5070990;28;20068;-75
2024/01/21 08:56:53;;;;;;;10.68;6.07;;;;;;;0.12;39.98;101870.41;5069738;28;20037;-74
2024/01/21 08:59:21;;;;;;;10.15;5.70;;;;;;;0.12;40.33;101862.31;5067424;28;20051;-74
2024/01/21 09:01:50;;;;;;;10.13;6.00;;;;;;;0.15;40.24;101875.72;5060264;28;20499;-75
2024/01/21 09:04:18;;;;;;;10.50;5.88;;;;;;;0.17;40.29;101855.03;5069081;28;20411;-75
2024/01/21 09:06:46;;;;;;;11.00;5.65;;;;;;;0.20;40.22;101863.00;5068335;28;20091;-75
2024/01/21 09:09:14;;;;;;;10.45;5.97;;;;;;;0.22;40.29;101863.84;5063407;28;20052;-74
2024/01/21 09:11:42;;;;;;;10.18;5.82;;;;;;;0.24;40.25;101855.72;5069491;28;20485;-75
2024/01/21 09:14:11;;;;;;;12.60;6.35;;;;;;;0.27;40.43;101844.88;5070708;28;20052;-75
2024/01/21 09:16:39;;;;;;;11.48;6.53;;;;;;;0.28;40.34;101870.84;5068882;28;20039;-74
2024/01/21 09:19:07;;;;;;;12.65;6.50;;;;;;;0.31;40.47;101868.97;5062480;28;20044;-75
2024/01/21 09:21:36;;;;;;;11.05;6.20;;;;;;;0.34;40.78;101879.66;5065578;28;20051;-75
2024/01/21 09:24:05;;;;;;;10.93;6.35;;;;;;;0.38;40.40;101860.69;5070592;28;20098;-75
2024/01/21 09:26:33;;;;;;;11.70;6.70;;;;;;;0.38;40.75;101871.47;5065351;28;20049;-74
2024/01/21 09:29:02;;;;;;;12.27;6.50;;;;;;;0.41;40.36;101858.81;5067025;28;20059;-75
2024/01/21 09:31:31;;;;;;;11.75;7.00;;;;;;;0.41;40.14;101839.97;5084700;28;20122;-75
2024/01/21 09:33:59;;;;;;;11.18;6.82;;;;;;;0.44;40.43;101844.34;5071686;28;20049;-75
2024/01/21 09:36:27;;;;;;;11.32;6.50;;;;;;;0.45;40.30;101832.66;5065720;28;20640;-74
2024/01/21 09:38:55;;;;;;;11.38;6.80;;;;;;;0.46;40.31;101816.47;5066670;28;20048;-74
2024/01/21 09:41:31;;;;;;;11.77;6.82;;;;;;;0.49;39.80;101828.97;5067128;28;20134;-75
2024/01/21 09:44:00;;;;;;;9.98;6.00;;;;;;;0.48;40.26;101817.31;5069673;28;20041;-75
2024/01/21 09:46:32;;;;;;;11.13;6.53;;;;;;;0.52;40.34;101815.41;5067086;28;20044;-74
2024/01/21 09:49:01;;;;;;;12.57;6.85;;;;;;;0.54;40.27;101829.69;5065058;28;20041;-75
2024/01/21 09:51:31;;;;;;;11.60;6.55;;;;;;;0.55;40.30;101834.16;5065133;28;20049;-75
2024/01/21 09:54:00;;;;;;;12.35;7.13;;;;;;;0.55;40.25;101824.25;5059810;28;20068;-75
2024/01/21 09:56:28;;;;;;;12.60;7.05;;;;;;;0.56;40.25;101819.75;5069608;28;20732;-75
2024/01/21 09:58:57;;;;;;;12.30;6.63;;;;;;;0.59;40.10;101836.72;5065746;28;20068;-74
2024/01/21 10:01:25;;;;;;;12.13;7.38;;;;;;;0.61;40.27;101840.22;5067265;28;20048;-76
2024/01/21 10:03:55;;;;;;;12.07;6.93;;;;;;;0.64;40.17;101831.19;5069941;28;20043;-75
2024/01/21 10:06:24;;;;;;;12.18;7.35;;;;;;;0.64;40.39;101834.75;5068672;28;20060;-74
2024/01/21 10:08:52;;;;;;;12.57;7.43;;;;;;;0.67;40.40;101847.25;5068738;28;20036;-74
2024/01/21 10:11:20;;;;;;;11.73;7.72;;;;;;;0.69;40.32;101838.19;5068622;28;20045;-74
2024/01/21 10:13:48;;;;;;;12.00;6.63;;;;;;;0.73;40.52;101838.97;5063858;28;20446;-75
2024/01/21 10:16:16;;;;;;;12.32;7.05;;;;;;;0.76;40.31;101862.25;5064575;28;20090;-75
2024/01/21 10:18:48;;;;;;;12.63;7.45;;;;;;;0.79;39.98;101852.25;5058586;28;20792;-76
2024/01/21 10:21:20;;;;;;;12.52;6.82;;;;;;;0.80;40.14;101847.75;5069724;28;20055;-78
2024/01/21 10:23:48;;;;;;;12.18;7.22;;;;;;;0.83;40.45;101842.28;5063500;28;20045;-78
2024/01/21 10:26:16;;;;;;;11.40;7.68;;;;;;;0.86;40.27;101836.75;5064301;28;20052;-78
2024/01/21 10:28:44;;;;;;;12.88;7.50;;;;;;;0.86;40.51;101837.66;5060757;28;20067;-78
2024/01/21 10:31:12;;;;;;;13.80;7.32;;;;;;;0.89;40.40;101829.50;5059602;28;20044;-77
2024/01/21 10:33:44;;;;;;;11.20;6.80;;;;;;;0.92;39.99;101848.28;5065399;28;20041;-77
2024/01/21 10:36:12;;;;;;;13.02;6.72;;;;;;;0.94;40.29;101842.81;5063664;28;20099;-78
2024/01/21 10:38:49;;;;;;;12.45;6.78;;;;;;;0.98;39.52;101861.56;5056801;28;20622;-76
2024/01/21 10:41:25;;;;;;;12.20;7.05;;;;;;;1.00;39.85;101851.63;5062412;28;20047;-76
2024/01/21 10:43:57;;;;;;;11.43;6.72;;;;;;;1.01;39.80;101864.13;5066943;28;20044;-76
2024/01/21 10:46:26;;;;;;;10.57;6.63;;;;;;;1.01;40.32;101860.59;5066721;28;20091;-76
2024/01/21 10:48:57;;;;;;;11.25;6.68;;;;;;;1.05;39.89;101868.53;5066162;28;20044;-76
2024/01/21 10:51:25;;;;;;;12.07;6.97;;;;;;;1.07;40.11;101855.00;5066845;28;20048;-76
2024/01/21 10:53:59;;;;;;;11.10;6.95;;;;;;;1.09;39.79;101863.94;5068841;28;20044;-75
2024/01/21 10:56:27;;;;;;;11.23;6.97;;;;;;;1.08;40.28;101883.72;5063816;28;20072;-76
2024/01/21 10:59:04;;;;;;;10.63;6.45;;;;;;;1.11;40.17;101889.88;5064430;28;20072;-75
2024/01/21 11:01:34;;;;;;;11.70;7.20;;;;;;;1.13;40.15;101886.25;5065203;28;20068;-75
2024/01/21 11:04:07;;;;;;;11.65;6.82;;;;;;;1.15;39.87;101876.31;5066788;28;20040;-75
2024/01/21 11:06:35;;;;;;;11.15;6.88;;;;;;;1.15;40.22;101885.28;5060126;28;20036;-75
2024/01/21 11:09:08;;;;;;;11.38;6.65;;;;;;;1.20;39.88;101882.44;5067705;28;20040;-67
2024/01/21 11:11:42;;;;;;;11.75;6.50;;;;;;;1.22;40.18;101867.09;5073925;28;20041;-74
2024/01/21 11:14:29;;;;;;;11.68;7.03;;;;;;;1.24;39.61;101876.91;5065616;28;20044;-75
2024/01/21 11:16:58;;;;;;;10.80;6.70;;;;;;;1.24;40.26;101866.13;5070639;28;20050;-75
2024/01/21 11:19:37;;;;;;;11.00;5.90;;;;;;;1.25;40.29;101859.78;5064144;28;20487;-75
2024/01/21 11:22:10;;;;;;;11.88;6.95;;;;;;;1.27;40.53;101855.22;5068672;28;20045;-75
2024/01/21 11:24:40;;;;;;;13.15;6.72;;;;;;;1.29;40.59;101852.47;5057566;28;20120;-75
2024/01/21 11:27:17;;;;;;;12.90;7.15;;;;;;;1.34;40.42;101853.22;5057656;28;20500;-75
2024/01/21 11:29:45;;;;;;;9.98;6.22;;;;;;;1.32;40.76;101841.59;5064782;28;20052;-75
2024/01/21 11:32:13;;;;;;;10.98;6.55;;;;;;;1.33;40.63;101824.47;5068144;28;20033;-76
2024/01/21 11:34:45;;;;;;;12.65;7.70;;;;;;;1.33;40.58;101819.09;5070287;28;20060;-75